Quincy, IL

1:34 AM CDT on May 01, 2017 (GMT -0500)
KB9HGI - N 17th St. | | Change Station

Elev 614 ft 39.95 °N, 91.38 °W | Updated 2 seconds ago

Rain
Rain
51.4 °F
Feels Like 51.4 °F
N
0.0
Wind Variable Wind from SSW
Gusts 8.0 mph

Today
High -- | Low -- °F
--% Chance of Precip.
Yesterday
High -- | Low -- °F
Precip. -- in
Pressure 29.50 in
Visibility 10.0 miles
Clouds Overcast 9000 ft
Dew Point 45 °F
Humidity 79%
Rainfall 0.00 in
Snow Depth Not available.
6:05 AM 8:00 PM
Waxing Crescent, 30% visible
METAR KUIN 010554Z AUTO 26006KT 10SM OVC090 11/06 A2950 RMK AO2 RAE02 SLP989 P0000 60029 T01060061 10139 20100 401830072 58008
Pressure 29.50 in
Visibility 10.0 miles
Clouds Overcast 9000 ft
Dew Point 45 °F
Humidity 79%
Rainfall 0.00 in
Snow Depth Not available.
6:05 AM 8:00 PM
Waxing Crescent, 30% visible
METAR KUIN 010554Z AUTO 26006KT 10SM OVC090 11/06 A2950 RMK AO2 RAE02 SLP989 P0000 60029 T01060061 10139 20100 401830072 58008

Get Severe Weather Alerts

Thanks for signing up!

Be on the lookout for a verification email in your inbox.

You'll start receiving the daily forecast at 8 AM.

×

10-Day Weather Forecast

Almanac

Astronomy

May. 01, 2017 Rise Set
Actual Time
Civil Twilight
Nautical Twilight
Astronomical Twilight
Moon
Length of Visible Light
Length of Day
Tomorrow will be .
, % of the Moon is Illuminated

Today's Extremes

State Highs State Lows

Community

WunderPhotos

WunderBlog® & News

Nearby

Air Quality

  Air Quality AQ Index Pollutant
Not available.

Snow Depth

Station Depth Elevation

Earthquake Activity

City Distance Mag. Time & Date
Minimum magnitude displayed is 2.5.

Coastal Water Temperatures

Place Temperature

Stations

Nearby Weather Stations

Station Location Temp. Windchill Dew Point Humidity Wind Precip. Elev Updated Type
                   

Watches & Warnings

There are currently no watches in effect.